createdAt,value
2022-10-17T00:00:22.604Z,12.53
2022-10-17T00:01:22.673Z,12.51
2022-10-17T00:02:22.584Z,12.53
2022-10-17T00:03:22.578Z,12.54
2022-10-17T00:04:22.606Z,12.57
2022-10-17T00:05:22.594Z,12.55
2022-10-17T00:06:22.621Z,12.57
2022-10-17T00:07:22.541Z,12.50
2022-10-17T00:08:22.582Z,12.46
2022-10-17T00:09:22.541Z,12.54
2022-10-17T00:10:22.550Z,12.55
2022-10-17T00:11:22.507Z,12.53
2022-10-17T00:12:22.505Z,12.63
2022-10-17T00:13:22.560Z,12.57
2022-10-17T00:14:22.490Z,12.58
2022-10-17T00:15:22.532Z,12.65
2022-10-17T00:16:22.491Z,12.57
2022-10-17T00:17:22.483Z,12.64
2022-10-17T00:18:22.453Z,12.65
2022-10-17T00:19:22.469Z,12.64
2022-10-17T00:20:23.460Z,12.60
2022-10-17T00:21:22.428Z,12.69
2022-10-17T00:22:22.411Z,12.68
2022-10-17T00:23:23.410Z,12.64
2022-10-17T00:24:22.404Z,12.68
2022-10-17T00:25:22.424Z,12.65
2022-10-17T00:26:22.378Z,12.60
2022-10-17T00:27:22.371Z,12.65
2022-10-17T00:28:22.387Z,12.68
2022-10-17T00:29:22.353Z,12.63
2022-10-17T00:30:22.383Z,12.64
2022-10-17T00:31:22.334Z,12.53
2022-10-17T00:32:22.321Z,12.57
2022-10-17T00:33:22.327Z,12.63
2022-10-17T00:34:22.312Z,12.58
2022-10-17T00:35:22.332Z,12.54
2022-10-17T00:36:22.295Z,12.54
2022-10-17T00:37:22.290Z,12.57
2022-10-17T00:38:22.275Z,12.60
2022-10-17T00:39:22.268Z,12.55
2022-10-17T00:40:22.289Z,12.63
2022-10-17T00:41:22.323Z,12.55
2022-10-17T00:42:22.241Z,12.63
2022-10-17T00:43:22.235Z,12.61
2022-10-17T00:44:22.234Z,12.69
2022-10-17T00:45:22.244Z,12.64
2022-10-17T00:46:22.203Z,12.65
2022-10-17T00:47:22.203Z,12.63
2022-10-17T00:48:23.324Z,12.55
2022-10-17T00:49:22.217Z,12.55
2022-10-17T00:50:22.215Z,12.57
2022-10-17T00:51:22.174Z,12.51
2022-10-17T00:52:22.161Z,12.51
2022-10-17T00:53:22.146Z,12.50
2022-10-17T00:54:22.151Z,12.58
2022-10-17T00:55:22.161Z,12.55
2022-10-17T00:56:22.129Z,12.60
2022-10-17T00:57:22.128Z,12.55
2022-10-17T00:58:22.120Z,12.55
2022-10-17T00:59:22.110Z,12.61
2022-10-17T01:00:22.121Z,12.57
2022-10-17T01:01:22.136Z,12.61
2022-10-17T01:02:22.088Z,12.55
2022-10-17T01:03:22.068Z,12.45
2022-10-17T01:04:22.065Z,12.53
2022-10-17T01:05:22.079Z,12.53
2022-10-17T01:06:22.041Z,12.51
2022-10-17T01:07:22.030Z,12.47
2022-10-17T01:08:22.024Z,12.53
2022-10-17T01:09:22.010Z,12.47
2022-10-17T01:11:21.988Z,12.35
2022-10-17T01:12:21.998Z,12.46
2022-10-17T01:13:21.975Z,12.42
2022-10-17T01:14:21.966Z,12.43
2022-10-17T01:15:21.998Z,12.54
2022-10-17T01:16:21.952Z,12.51
2022-10-17T01:17:21.938Z,12.46
2022-10-17T01:18:21.929Z,12.51
2022-10-17T01:19:21.999Z,12.57
2022-10-17T01:20:21.953Z,12.51
2022-10-17T01:21:21.911Z,12.50
2022-10-17T01:22:21.911Z,12.51
2022-10-17T01:23:21.890Z,12.36
2022-10-17T01:24:21.889Z,12.51
2022-10-17T01:25:21.898Z,12.51
2022-10-17T01:26:21.864Z,12.46
2022-10-17T01:27:21.863Z,12.50
2022-10-17T01:28:21.956Z,12.47
2022-10-17T01:29:21.839Z,12.42
2022-10-17T01:30:21.860Z,12.50
2022-10-17T01:31:21.822Z,12.47
2022-10-17T01:32:21.812Z,12.35
2022-10-17T01:33:21.801Z,12.38
2022-10-17T01:34:21.800Z,12.32
2022-10-17T01:35:21.811Z,12.32
2022-10-17T01:36:21.775Z,12.36
2022-10-17T01:37:21.766Z,12.24
2022-10-17T01:38:21.780Z,12.28
2022-10-17T01:39:21.746Z,12.30
2022-10-17T01:40:21.774Z,12.28
2022-10-17T01:41:21.731Z,12.30
2022-10-17T01:42:21.805Z,12.28
2022-10-17T01:43:21.714Z,12.30
2022-10-17T01:44:21.702Z,12.32
2022-10-17T01:45:21.766Z,12.25
2022-10-17T01:46:21.694Z,12.24
2022-10-17T01:47:21.689Z,12.22
2022-10-17T01:48:21.671Z,12.25
2022-10-17T01:49:21.668Z,12.28
2022-10-17T01:50:22.061Z,12.21
2022-10-17T01:51:21.649Z,12.25
2022-10-17T01:52:21.640Z,12.15
2022-10-17T01:53:21.635Z,12.20
2022-10-17T01:54:21.635Z,12.14
2022-10-17T01:55:21.611Z,12.10
2022-10-17T01:56:21.638Z,12.09
2022-10-17T01:57:21.602Z,12.13
2022-10-17T01:58:21.592Z,12.05
2022-10-17T01:59:21.585Z,12.02
2022-10-17T02:00:21.572Z,12.02
2022-10-17T02:01:21.669Z,12.05
2022-10-17T02:02:21.554Z,12.00
2022-10-17T02:03:21.551Z,12.09
2022-10-17T02:04:21.535Z,12.02
2022-10-17T02:05:21.534Z,11.99
2022-10-17T02:06:21.549Z,11.95
2022-10-17T02:07:21.517Z,11.84
2022-10-17T02:08:21.505Z,11.91
2022-10-17T02:09:21.506Z,11.83
2022-10-17T02:10:21.488Z,11.81
2022-10-17T02:11:21.508Z,11.84
2022-10-17T02:12:21.470Z,11.81
2022-10-17T02:13:21.465Z,11.80
2022-10-17T02:14:21.467Z,11.69
2022-10-17T02:15:21.450Z,11.88
2022-10-17T02:16:21.469Z,11.76
2022-10-17T02:17:21.428Z,11.87
2022-10-17T02:18:21.414Z,11.74
2022-10-17T02:19:22.417Z,11.77
2022-10-17T02:20:21.414Z,11.81
2022-10-17T02:21:21.432Z,11.68
2022-10-17T02:22:21.392Z,11.86
2022-10-17T02:23:21.380Z,11.79
2022-10-17T02:24:21.400Z,11.76
2022-10-17T02:25:21.364Z,11.77
2022-10-17T02:26:21.563Z,11.77
2022-10-17T02:27:21.343Z,11.81
2022-10-17T02:28:21.361Z,11.79
2022-10-17T02:29:21.329Z,11.66
2022-10-17T02:30:21.349Z,11.62
2022-10-17T02:31:21.331Z,11.62
2022-10-17T02:33:21.309Z,11.63
2022-10-17T02:34:21.287Z,11.71
2022-10-17T02:35:21.305Z,11.68
2022-10-17T02:36:21.272Z,11.62
2022-10-17T02:37:21.267Z,11.63
2022-10-17T02:38:21.259Z,11.66
2022-10-17T02:39:21.285Z,11.63
2022-10-17T02:40:21.247Z,11.62
2022-10-17T02:41:21.251Z,11.63
2022-10-17T02:42:21.223Z,11.66
2022-10-17T02:43:21.202Z,11.62
2022-10-17T02:44:21.201Z,11.61
2022-10-17T02:45:21.256Z,11.62
2022-10-17T02:46:21.258Z,11.69
2022-10-17T02:47:21.181Z,11.61
2022-10-17T02:48:21.164Z,11.62
2022-10-17T02:49:21.162Z,11.61
2022-10-17T02:50:21.207Z,11.65
2022-10-17T02:51:21.315Z,11.63
2022-10-17T02:52:21.384Z,11.63
2022-10-17T02:53:21.126Z,11.61
2022-10-17T02:54:21.114Z,11.58
2022-10-17T02:55:21.134Z,11.62
2022-10-17T02:56:21.101Z,11.58
2022-10-17T02:57:21.094Z,11.51
2022-10-17T02:58:21.072Z,11.48
2022-10-17T02:59:21.111Z,11.53
2022-10-17T03:00:21.560Z,11.50
2022-10-17T03:01:21.216Z,11.53
2022-10-17T03:02:21.045Z,11.59
2022-10-17T03:03:21.041Z,11.46
2022-10-17T03:04:21.123Z,11.56
2022-10-17T03:05:21.021Z,11.56
2022-10-17T03:06:21.014Z,11.53
2022-10-17T03:07:21.156Z,11.48
2022-10-17T03:08:21.000Z,11.51
2022-10-17T03:09:21.019Z,11.40
2022-10-17T03:10:20.975Z,11.40
2022-10-17T03:11:20.975Z,11.50
2022-10-17T03:12:20.956Z,11.48
2022-10-17T03:13:20.957Z,11.51
2022-10-17T03:14:20.983Z,11.46
2022-10-17T03:15:20.937Z,11.35
2022-10-17T03:16:20.934Z,11.40
2022-10-17T03:17:21.224Z,11.46
2022-10-17T03:18:20.914Z,11.40
2022-10-17T03:19:20.942Z,11.50
2022-10-17T03:20:20.900Z,11.47
2022-10-17T03:21:20.910Z,11.47
2022-10-17T03:22:20.882Z,11.37
2022-10-17T03:23:20.868Z,11.40
2022-10-17T03:24:20.858Z,11.37
2022-10-17T03:25:20.887Z,11.41
2022-10-17T03:26:20.841Z,11.32
2022-10-17T03:27:20.840Z,11.30
2022-10-17T03:28:20.893Z,11.37
2022-10-17T03:29:20.841Z,11.40
2022-10-17T03:30:20.813Z,11.26
2022-10-17T03:31:20.800Z,11.23
2022-10-17T03:32:20.813Z,11.23
2022-10-17T03:33:20.788Z,11.14
2022-10-17T03:34:20.810Z,11.07
2022-10-17T03:35:20.770Z,11.05
2022-10-17T03:36:20.795Z,10.95
2022-10-17T03:37:20.747Z,10.97
2022-10-17T03:38:20.744Z,11.00
2022-10-17T03:39:20.758Z,10.96
2022-10-17T03:40:20.723Z,11.03
2022-10-17T03:41:20.716Z,11.04
2022-10-17T03:42:20.715Z,11.01
2022-10-17T03:43:20.714Z,10.92
2022-10-17T03:44:20.741Z,10.96
2022-10-17T03:45:20.682Z,10.93
2022-10-17T03:46:20.748Z,10.93
2022-10-17T03:47:20.663Z,11.00
2022-10-17T03:48:21.737Z,10.93
2022-10-17T03:49:20.648Z,10.95
2022-10-17T03:50:20.667Z,10.97
2022-10-17T03:51:20.633Z,10.95
2022-10-17T03:52:20.620Z,10.79
2022-10-17T03:53:20.611Z,10.86
2022-10-17T03:54:20.608Z,10.87
2022-10-17T03:55:20.635Z,10.79
2022-10-17T03:56:20.595Z,10.74
2022-10-17T03:57:20.591Z,10.71
2022-10-17T03:58:20.582Z,10.85
2022-10-17T03:59:20.572Z,10.74
2022-10-17T04:00:20.586Z,10.79
2022-10-17T04:01:20.599Z,10.83
2022-10-17T04:02:20.542Z,10.74
2022-10-17T04:03:20.533Z,10.82
2022-10-17T04:04:20.565Z,10.77
2022-10-17T04:05:20.551Z,10.75
2022-10-17T04:06:20.504Z,10.74
2022-10-17T04:07:20.529Z,10.77
2022-10-17T04:08:20.491Z,10.74
2022-10-17T04:09:20.491Z,10.79
2022-10-17T04:10:20.506Z,10.77
2022-10-17T04:11:20.473Z,10.82
2022-10-17T04:12:20.464Z,10.82
2022-10-17T04:13:20.502Z,10.86
2022-10-17T04:14:20.575Z,10.85
2022-10-17T04:15:20.460Z,10.83
2022-10-17T04:16:21.424Z,10.90
2022-10-17T04:17:20.415Z,10.93
2022-10-17T04:18:20.411Z,11.00
2022-10-17T04:19:20.401Z,10.97
2022-10-17T04:20:20.473Z,11.12
2022-10-17T04:21:20.379Z,11.12
2022-10-17T04:22:20.377Z,11.11
2022-10-17T04:23:20.362Z,11.19
2022-10-17T04:24:20.362Z,11.20
2022-10-17T04:25:20.370Z,11.23
2022-10-17T04:26:20.355Z,11.35
2022-10-17T04:27:20.329Z,11.33
2022-10-17T04:28:20.374Z,11.23
2022-10-17T04:29:20.310Z,11.25
2022-10-17T04:30:20.340Z,11.23
2022-10-17T04:31:20.290Z,11.17
2022-10-17T04:32:20.280Z,11.22
2022-10-17T04:33:20.283Z,11.19
2022-10-17T04:34:20.286Z,11.28
2022-10-17T04:35:20.282Z,11.29
2022-10-17T04:36:20.249Z,11.30
2022-10-17T04:37:20.248Z,11.29
2022-10-17T04:38:21.949Z,11.30
2022-10-17T04:39:20.230Z,11.29
2022-10-17T04:40:20.252Z,11.37
2022-10-17T04:41:20.211Z,11.37
2022-10-17T04:42:20.240Z,11.22
2022-10-17T04:43:20.192Z,11.25
2022-10-17T04:44:20.189Z,11.33
2022-10-17T04:45:20.209Z,11.32
2022-10-17T04:46:20.165Z,11.25
2022-10-17T04:47:20.164Z,11.29
2022-10-17T04:48:20.189Z,11.30
2022-10-17T04:49:20.139Z,11.30
2022-10-17T04:50:20.154Z,11.35
2022-10-17T04:51:23.331Z,11.33
2022-10-17T04:52:20.117Z,11.30
2022-10-17T04:53:20.157Z,11.33
2022-10-17T04:54:20.118Z,11.29
2022-10-17T04:55:20.178Z,11.20
2022-10-17T04:56:20.084Z,11.29
2022-10-17T04:57:20.083Z,11.22
2022-10-17T04:58:20.071Z,11.30
2022-10-17T04:59:20.064Z,11.28
2022-10-17T05:00:20.089Z,11.17
2022-10-17T05:01:20.101Z,11.29
2022-10-17T05:02:20.036Z,11.22
2022-10-17T05:03:20.622Z,11.25
2022-10-17T05:04:22.457Z,11.07
2022-10-17T05:05:20.040Z,11.05
2022-10-17T05:06:19.994Z,11.14
2022-10-17T05:07:19.988Z,11.05
2022-10-17T05:08:19.972Z,11.07
2022-10-17T05:09:20.979Z,11.19
2022-10-17T05:10:20.008Z,11.07
2022-10-17T05:11:20.000Z,11.12
2022-10-17T05:12:19.949Z,11.08
2022-10-17T05:13:19.939Z,11.05
2022-10-17T05:14:19.934Z,11.23
2022-10-17T05:15:19.961Z,11.19
2022-10-17T05:16:19.914Z,11.12
2022-10-17T05:17:19.901Z,11.17
2022-10-17T05:18:19.896Z,11.17
2022-10-17T05:19:19.893Z,11.30
2022-10-17T05:20:19.920Z,11.23
2022-10-17T05:21:19.918Z,11.15
2022-10-17T05:22:19.856Z,11.00
2022-10-17T05:23:19.851Z,10.90
2022-10-17T05:24:19.882Z,11.03
2022-10-17T05:25:19.832Z,10.89
2022-10-17T05:26:19.867Z,10.92
2022-10-17T05:27:19.815Z,10.89
2022-10-17T05:28:19.807Z,10.83
2022-10-17T05:29:19.801Z,10.82
2022-10-17T05:30:19.790Z,10.77
2022-10-17T05:31:19.830Z,10.78
2022-10-17T05:32:19.769Z,10.83
2022-10-17T05:33:19.764Z,10.86
2022-10-17T05:34:19.769Z,10.86
2022-10-17T05:35:19.797Z,10.78
2022-10-17T05:36:19.747Z,10.83
2022-10-17T05:37:19.732Z,10.71
2022-10-17T05:38:19.739Z,10.83
2022-10-17T05:39:19.727Z,10.74
2022-10-17T05:40:19.759Z,10.75
2022-10-17T05:41:19.692Z,10.86
2022-10-17T05:42:19.769Z,10.82
2022-10-17T05:43:19.686Z,10.89
2022-10-17T05:44:19.678Z,10.86
2022-10-17T05:45:19.665Z,10.85
2022-10-17T05:46:19.689Z,10.75
2022-10-17T05:47:19.647Z,10.79
2022-10-17T05:48:19.648Z,10.77
2022-10-17T05:49:33.036Z,10.78
2022-10-17T05:50:21.627Z,10.67
2022-10-17T05:51:19.870Z,10.74
2022-10-17T05:52:20.607Z,10.78
2022-10-17T05:53:19.682Z,10.72
2022-10-17T05:54:19.588Z,10.68
2022-10-17T05:55:19.589Z,10.67
2022-10-17T05:56:19.674Z,10.74
2022-10-17T05:57:19.565Z,10.72
2022-10-17T05:58:22.069Z,10.75
2022-10-17T05:59:21.551Z,10.65
2022-10-17T06:00:19.564Z,10.71
2022-10-17T06:01:19.582Z,10.77
2022-10-17T06:02:19.639Z,10.72
2022-10-17T06:03:19.535Z,10.77
2022-10-17T06:04:19.529Z,10.78
2022-10-17T06:05:19.590Z,10.74
2022-10-17T06:06:19.520Z,10.83
2022-10-17T06:07:19.525Z,10.86
2022-10-17T06:08:19.490Z,10.89
2022-10-17T06:09:19.463Z,10.86
2022-10-17T06:10:19.465Z,10.95
2022-10-17T06:11:19.487Z,10.90
2022-10-17T06:12:19.448Z,10.92
2022-10-17T06:13:19.433Z,10.97
2022-10-17T06:14:19.419Z,10.85
2022-10-17T06:15:19.438Z,10.86
2022-10-17T06:16:19.446Z,10.90
2022-10-17T06:17:19.401Z,10.89
2022-10-17T06:18:19.397Z,10.83
2022-10-17T06:19:19.383Z,10.83
2022-10-17T06:20:19.375Z,10.77
2022-10-17T06:21:19.400Z,10.85
2022-10-17T06:22:19.359Z,10.79
2022-10-17T06:23:19.353Z,10.83
2022-10-17T06:24:19.338Z,10.86
2022-10-17T06:25:19.330Z,10.89
2022-10-17T06:26:19.357Z,10.90
2022-10-17T06:27:19.317Z,10.95
2022-10-17T06:28:19.487Z,10.92
2022-10-17T06:29:19.302Z,10.90
2022-10-17T06:30:19.288Z,10.95
2022-10-17T06:31:19.310Z,11.01
2022-10-17T06:32:19.278Z,11.07
2022-10-17T06:33:19.271Z,11.17
2022-10-17T06:34:19.291Z,11.22
2022-10-17T06:35:19.251Z,11.25
2022-10-17T06:36:19.270Z,11.25
2022-10-17T06:37:19.232Z,11.35
2022-10-17T06:38:19.229Z,11.50
2022-10-17T06:39:19.260Z,11.58
2022-10-17T06:40:19.196Z,11.54
2022-10-17T06:41:19.304Z,11.88
2022-10-17T06:42:19.187Z,12.25
2022-10-17T06:43:19.177Z,12.60
2022-10-17T06:44:19.162Z,12.88
2022-10-17T06:45:19.156Z,12.94
2022-10-17T06:46:19.222Z,12.97
2022-10-17T06:47:20.042Z,13.11
2022-10-17T06:48:20.138Z,13.24
2022-10-17T06:49:19.123Z,13.77
2022-10-17T06:50:19.233Z,13.90
2022-10-17T06:51:19.157Z,13.82
2022-10-17T06:52:19.098Z,13.82
2022-10-17T06:53:19.106Z,14.03
2022-10-17T06:54:19.083Z,14.00
2022-10-17T06:55:22.616Z,13.74
2022-10-17T06:56:19.096Z,13.70
2022-10-17T06:57:19.076Z,13.67
2022-10-17T06:58:19.054Z,13.60
2022-10-17T06:59:19.047Z,13.53
2022-10-17T07:00:19.037Z,13.45
2022-10-17T07:01:19.054Z,13.53
2022-10-17T07:02:19.018Z,13.50
2022-10-17T07:03:19.062Z,13.60
2022-10-17T07:04:19.012Z,13.56
2022-10-17T07:05:18.994Z,13.55
2022-10-17T07:06:19.073Z,13.50
2022-10-17T07:07:18.970Z,13.64
2022-10-17T07:08:19.027Z,13.59
2022-10-17T07:09:19.013Z,13.74
2022-10-17T07:10:18.980Z,13.97
2022-10-17T07:11:18.982Z,13.89
2022-10-17T07:12:18.938Z,13.97
2022-10-17T07:13:18.922Z,13.74
2022-10-17T07:14:18.908Z,13.50
2022-10-17T07:15:18.902Z,13.47
2022-10-17T07:16:18.922Z,13.70
2022-10-17T07:17:19.178Z,13.75
2022-10-17T07:18:18.878Z,13.90
2022-10-17T07:19:18.874Z,14.29
2022-10-17T07:20:18.859Z,14.69
2022-10-17T07:21:19.872Z,14.66
2022-10-17T07:22:18.869Z,14.95
2022-10-17T07:23:18.828Z,15.09
2022-10-17T07:24:18.865Z,15.11
2022-10-17T07:25:18.820Z,15.58
2022-10-17T07:26:18.859Z,15.83
2022-10-17T07:27:18.799Z,15.80
2022-10-17T07:28:18.787Z,16.00
2022-10-17T07:29:18.826Z,16.05
2022-10-17T07:30:18.771Z,16.51
2022-10-17T07:31:18.795Z,17.26
2022-10-17T07:32:18.944Z,17.85
2022-10-17T07:33:18.814Z,18.41
2022-10-17T07:34:18.741Z,18.50
2022-10-17T07:35:18.734Z,18.40
2022-10-17T07:36:18.724Z,18.03
2022-10-17T07:37:18.769Z,18.16
2022-10-17T07:38:18.701Z,19.23
2022-10-17T07:39:18.710Z,19.79
2022-10-17T07:40:18.681Z,19.51
2022-10-17T07:41:20.925Z,19.73
2022-10-17T07:42:18.705Z,19.88
2022-10-17T07:43:18.677Z,19.63
2022-10-17T07:44:18.655Z,19.76
2022-10-17T07:45:18.699Z,19.89
2022-10-17T07:46:18.641Z,20.10
2022-10-17T07:47:18.655Z,19.78
2022-10-17T07:48:18.637Z,19.73
2022-10-17T07:49:18.612Z,20.03
2022-10-17T07:50:18.611Z,20.44
2022-10-17T07:51:18.598Z,20.99
2022-10-17T07:52:18.633Z,21.30
2022-10-17T07:53:18.578Z,21.40
2022-10-17T07:54:18.580Z,21.98
2022-10-17T07:55:18.565Z,22.44
2022-10-17T07:56:18.587Z,22.63
2022-10-17T07:57:18.571Z,22.90
2022-10-17T07:58:18.534Z,22.98
2022-10-17T07:59:18.536Z,22.91
2022-10-17T08:00:18.717Z,23.00
2022-10-17T08:01:18.535Z,23.17
2022-10-17T08:02:18.542Z,23.65
2022-10-17T08:03:18.503Z,23.86
2022-10-17T08:04:18.490Z,23.70
2022-10-17T08:05:19.277Z,24.07
2022-10-17T08:06:18.471Z,24.39
2022-10-17T08:07:22.997Z,24.52
2022-10-17T08:08:20.458Z,24.74
2022-10-17T08:09:18.450Z,24.83
2022-10-17T08:10:18.442Z,24.08
2022-10-17T08:11:18.434Z,23.78
2022-10-17T08:12:18.464Z,24.08
2022-10-17T08:13:18.418Z,23.96
2022-10-17T08:14:18.409Z,23.98
2022-10-17T08:15:18.436Z,24.02
2022-10-17T08:16:18.389Z,23.59
2022-10-17T08:17:18.417Z,23.33
2022-10-17T08:18:18.374Z,22.87
2022-10-17T08:19:18.376Z,22.51
2022-10-17T08:20:18.369Z,22.33
2022-10-17T08:21:18.456Z,21.88
2022-10-17T08:22:18.382Z,21.50
2022-10-17T08:23:18.364Z,21.70
2022-10-17T08:24:18.338Z,21.67
2022-10-17T08:25:18.330Z,21.61
2022-10-17T08:26:18.319Z,21.51
2022-10-17T08:27:18.337Z,21.81
2022-10-17T08:28:18.303Z,22.08
2022-10-17T08:29:18.345Z,22.13
2022-10-17T08:30:18.292Z,22.19
2022-10-17T08:31:18.287Z,22.19
2022-10-17T08:32:18.300Z,22.33
2022-10-17T08:33:18.259Z,22.25
2022-10-17T08:34:18.325Z,22.26
2022-10-17T08:35:18.245Z,22.23
2022-10-17T08:36:18.238Z,22.20
2022-10-17T08:37:18.273Z,22.45
2022-10-17T08:38:20.969Z,22.80
2022-10-17T08:39:19.214Z,22.72
2022-10-17T08:40:18.214Z,22.91
2022-10-17T08:41:18.202Z,23.17
2022-10-17T08:42:18.236Z,23.40
2022-10-17T08:43:18.183Z,23.84
2022-10-17T08:44:18.175Z,23.99
2022-10-17T08:45:18.175Z,24.43
2022-10-17T08:46:18.168Z,24.60
2022-10-17T08:47:18.177Z,24.55
2022-10-17T08:48:18.139Z,24.63
2022-10-17T08:49:18.130Z,24.67
2022-10-17T08:50:18.127Z,24.66
2022-10-17T08:51:18.200Z,24.81
2022-10-17T08:52:18.141Z,24.60
2022-10-17T08:53:18.099Z,24.33
2022-10-17T08:54:18.099Z,24.65
2022-10-17T08:56:19.954Z,24.98
2022-10-17T08:57:20.112Z,24.85
2022-10-17T08:58:18.069Z,24.70
2022-10-17T08:59:18.050Z,24.77
2022-10-17T09:00:18.044Z,24.76
2022-10-17T09:01:18.026Z,25.10
2022-10-17T09:02:19.071Z,25.35
2022-10-17T09:03:18.080Z,25.59
2022-10-17T09:04:18.042Z,26.11
2022-10-17T09:05:20.185Z,26.59
2022-10-17T09:06:17.997Z,26.81
2022-10-17T09:07:18.026Z,26.44
2022-10-17T09:08:17.993Z,26.23
2022-10-17T09:09:17.986Z,26.26
2022-10-17T09:10:17.974Z,26.44
2022-10-17T09:11:17.982Z,27.07
2022-10-17T09:12:17.983Z,26.89
2022-10-17T09:13:17.948Z,27.22
2022-10-17T09:14:18.045Z,27.04
2022-10-17T09:15:17.936Z,26.78
2022-10-17T09:16:17.952Z,27.44
2022-10-17T09:17:17.950Z,27.61
2022-10-17T09:18:21.112Z,27.54
2022-10-17T09:19:17.908Z,27.41
2022-10-17T09:20:17.918Z,27.54
2022-10-17T09:21:17.893Z,28.09
2022-10-17T09:22:17.920Z,28.27
2022-10-17T09:23:17.894Z,28.39
2022-10-17T09:24:17.862Z,28.53
2022-10-17T09:25:17.858Z,28.72
2022-10-17T09:26:17.898Z,28.53
2022-10-17T09:27:17.874Z,28.72
2022-10-17T09:28:17.846Z,28.76
2022-10-17T09:29:17.850Z,28.81
2022-10-17T09:30:40.022Z,28.91
2022-10-17T09:31:18.809Z,28.78
2022-10-17T09:32:17.813Z,28.82
2022-10-17T09:33:28.775Z,28.63
2022-10-17T09:34:21.074Z,29.01
2022-10-17T09:35:17.810Z,28.83
2022-10-17T09:36:17.782Z,28.82
2022-10-17T09:37:17.808Z,28.73
2022-10-17T09:38:17.766Z,28.75
2022-10-17T09:39:17.762Z,29.02
2022-10-17T09:40:17.758Z,28.79
2022-10-17T09:41:42.849Z,29.11
2022-10-17T09:42:19.767Z,29.35
2022-10-17T09:43:17.729Z,29.68
2022-10-17T09:44:17.729Z,29.17
2022-10-17T09:45:17.718Z,29.47
2022-10-17T09:46:17.706Z,29.72
2022-10-17T09:47:17.732Z,30.16
2022-10-17T09:48:17.692Z,30.37
2022-10-17T09:49:17.690Z,30.70
2022-10-17T09:50:17.690Z,30.32
2022-10-17T09:51:25.716Z,30.51
2022-10-17T09:52:19.700Z,30.67
2022-10-17T09:53:17.668Z,30.63
2022-10-17T09:54:17.665Z,30.56
2022-10-17T09:55:17.669Z,30.39
2022-10-17T09:56:17.666Z,30.20
2022-10-17T09:57:17.667Z,30.52
2022-10-17T09:58:17.620Z,30.20
2022-10-17T09:59:17.627Z,30.06
2022-10-17T10:00:17.621Z,30.05
2022-10-17T10:01:21.122Z,30.14
2022-10-17T10:02:19.631Z,30.50
2022-10-17T10:03:17.601Z,30.25
2022-10-17T10:04:17.593Z,30.31
2022-10-17T10:05:17.580Z,29.99
2022-10-17T10:06:17.569Z,30.65
2022-10-17T10:07:17.596Z,30.65
2022-10-17T10:08:17.565Z,30.78
2022-10-17T10:09:17.572Z,30.48
2022-10-17T10:10:17.554Z,30.67
2022-10-17T10:11:17.533Z,30.20
2022-10-17T10:12:17.559Z,30.47
2022-10-17T10:13:17.519Z,30.72
2022-10-17T10:14:17.518Z,29.83
2022-10-17T10:15:17.509Z,30.24
2022-10-17T10:16:17.504Z,30.32
2022-10-17T10:17:17.495Z,30.29
2022-10-17T10:18:17.590Z,30.50
2022-10-17T10:19:17.479Z,30.88
2022-10-17T10:20:17.463Z,30.99
2022-10-17T10:21:17.470Z,30.72
2022-10-17T10:22:17.489Z,30.77
2022-10-17T10:23:17.475Z,30.99
2022-10-17T10:24:17.441Z,30.77
2022-10-17T10:25:17.438Z,30.94
2022-10-17T10:26:20.291Z,30.69
2022-10-17T10:27:18.494Z,30.69
2022-10-17T10:28:17.412Z,30.62
2022-10-17T10:29:17.415Z,30.45
2022-10-17T10:30:17.405Z,30.70
2022-10-17T10:31:17.395Z,31.12
2022-10-17T10:32:17.419Z,31.40
2022-10-17T10:33:17.382Z,31.87
2022-10-17T10:34:17.373Z,31.74
2022-10-17T10:35:17.373Z,31.62
2022-10-17T10:36:17.348Z,31.96
2022-10-17T10:37:17.368Z,31.90
2022-10-17T10:38:18.343Z,31.96
2022-10-17T10:39:17.339Z,31.55
2022-10-17T10:40:17.335Z,31.14
2022-10-17T10:41:17.329Z,31.36
2022-10-17T10:42:17.344Z,31.37
2022-10-17T10:43:17.311Z,30.96
2022-10-17T10:44:17.301Z,30.77
2022-10-17T10:45:29.340Z,30.69
2022-10-17T10:46:19.298Z,30.29
2022-10-17T10:47:17.306Z,30.60
2022-10-17T10:48:17.269Z,30.65
2022-10-17T10:49:17.277Z,30.82
2022-10-17T10:50:17.260Z,31.04
2022-10-17T10:51:17.247Z,30.77
2022-10-17T10:52:17.284Z,31.15
2022-10-17T10:53:17.242Z,31.06
2022-10-17T10:54:17.238Z,31.22
2022-10-17T10:55:17.233Z,31.48
2022-10-17T10:56:17.220Z,31.36
2022-10-17T10:57:17.251Z,31.18
2022-10-17T10:58:17.213Z,31.22
2022-10-17T10:59:17.197Z,31.63
2022-10-17T11:00:17.182Z,32.35
2022-10-17T11:01:17.249Z,31.86
2022-10-17T11:02:17.180Z,31.87
2022-10-17T11:03:17.247Z,32.11
2022-10-17T11:04:17.172Z,31.70
2022-10-17T11:05:17.161Z,31.60
2022-10-17T11:06:17.150Z,31.51
2022-10-17T11:07:17.142Z,31.36
2022-10-17T11:08:17.166Z,31.03
2022-10-17T11:09:17.123Z,31.43
2022-10-17T11:10:17.125Z,31.37
2022-10-17T11:11:17.112Z,31.03
2022-10-17T11:12:17.102Z,30.88
2022-10-17T11:13:17.130Z,30.75
2022-10-17T11:14:17.094Z,30.70
2022-10-17T11:15:17.084Z,31.06
2022-10-17T11:16:17.072Z,30.72
2022-10-17T11:17:17.072Z,30.77
2022-10-17T11:18:17.103Z,31.02
2022-10-17T11:19:17.061Z,31.03
2022-10-17T11:20:17.198Z,30.97
2022-10-17T11:21:17.037Z,31.22
2022-10-17T11:22:17.038Z,31.40
2022-10-17T11:23:17.061Z,31.60
2022-10-17T11:24:17.017Z,31.59
2022-10-17T11:25:17.021Z,31.41
2022-10-17T11:26:17.024Z,31.59
2022-10-17T11:27:17.003Z,31.38
2022-10-17T11:28:17.011Z,30.91
2022-10-17T11:29:17.987Z,30.66
2022-10-17T11:30:16.976Z,30.18
2022-10-17T11:31:16.971Z,30.29
2022-10-17T11:32:16.964Z,30.14
2022-10-17T11:33:16.980Z,30.05
2022-10-17T11:34:16.949Z,30.13
2022-10-17T11:35:16.945Z,30.10
2022-10-17T11:36:16.933Z,30.28
2022-10-17T11:37:16.931Z,30.56
2022-10-17T11:38:16.942Z,30.66
2022-10-17T11:39:16.916Z,30.81
2022-10-17T11:40:19.212Z,30.80
2022-10-17T11:41:18.904Z,31.19
2022-10-17T11:42:16.895Z,31.56
2022-10-17T11:43:16.913Z,31.48
2022-10-17T11:44:16.877Z,31.66
2022-10-17T11:45:16.867Z,32.34
2022-10-17T11:46:16.856Z,32.25
2022-10-17T11:47:16.857Z,32.20
2022-10-17T11:48:16.880Z,32.55
2022-10-17T11:49:20.482Z,31.94
2022-10-17T11:52:31.876Z,31.29
2022-10-17T11:53:18.841Z,31.24
2022-10-17T11:54:16.802Z,31.07
2022-10-17T11:55:16.796Z,31.21
2022-10-17T11:56:16.784Z,31.12
2022-10-17T11:57:16.782Z,31.53
2022-10-17T11:58:16.849Z,31.58
2022-10-17T11:59:16.764Z,31.15
2022-10-17T12:00:16.757Z,31.15
2022-10-17T12:01:16.747Z,30.70
2022-10-17T12:02:16.754Z,30.62
2022-10-17T12:03:16.777Z,30.97
2022-10-17T12:04:16.763Z,31.31
2022-10-17T12:05:16.717Z,31.78
2022-10-17T12:06:16.714Z,31.52
2022-10-17T12:07:16.702Z,31.62
2022-10-17T12:08:16.730Z,31.67
2022-10-17T12:09:16.694Z,31.44
2022-10-17T12:10:16.686Z,31.11
2022-10-17T12:11:16.680Z,30.75
2022-10-17T12:12:16.676Z,30.69
2022-10-17T12:13:16.697Z,30.09
2022-10-17T12:14:16.651Z,30.27
2022-10-17T12:15:16.649Z,30.62
2022-10-17T12:16:17.576Z,30.65
2022-10-17T12:17:17.633Z,30.81
2022-10-17T12:18:16.801Z,30.99
2022-10-17T12:19:16.620Z,31.15
2022-10-17T12:20:16.622Z,31.04
2022-10-17T12:21:16.595Z,30.84
2022-10-17T12:22:16.595Z,30.75
2022-10-17T12:23:16.657Z,30.39
2022-10-17T12:24:18.895Z,30.29
2022-10-17T12:25:17.576Z,30.63
2022-10-17T12:26:16.562Z,30.50
2022-10-17T12:27:16.590Z,29.79
2022-10-17T12:28:16.582Z,29.95
2022-10-17T12:29:16.546Z,29.76
2022-10-17T12:30:16.545Z,29.85
2022-10-17T12:31:16.530Z,29.57
2022-10-17T12:32:16.521Z,29.85
2022-10-17T12:33:16.554Z,30.06
2022-10-17T12:34:16.504Z,30.03
2022-10-17T12:35:16.500Z,29.84
2022-10-17T12:36:16.492Z,29.83
2022-10-17T12:37:16.507Z,29.94
2022-10-17T12:38:16.505Z,29.58
2022-10-17T12:39:16.470Z,29.90
2022-10-17T12:40:16.456Z,30.40
2022-10-17T12:41:16.448Z,30.65
2022-10-17T12:42:16.442Z,30.60
2022-10-17T12:43:16.489Z,30.62
2022-10-17T12:44:16.786Z,30.27
2022-10-17T12:45:16.426Z,30.52
2022-10-17T12:46:16.419Z,30.51
2022-10-17T12:47:16.407Z,30.43
2022-10-17T12:48:16.469Z,30.21
2022-10-17T12:49:16.386Z,30.62
2022-10-17T12:50:16.385Z,30.40
2022-10-17T12:52:18.368Z,30.24
2022-10-17T12:53:18.550Z,30.21
2022-10-17T12:54:16.393Z,30.48
2022-10-17T12:55:16.345Z,30.70
2022-10-17T12:56:16.332Z,30.69
2022-10-17T12:57:16.330Z,30.69
2022-10-17T12:58:16.319Z,30.48